createdAt,value
2023-01-04T00:01:12.240Z,5.68
2023-01-04T00:03:40.444Z,5.66
2023-01-04T00:06:11.182Z,5.62
2023-01-04T00:08:39.412Z,5.58
2023-01-04T00:11:10.568Z,5.53
2023-01-04T00:13:39.153Z,5.49
2023-01-04T00:16:11.834Z,5.46
2023-01-04T00:18:40.400Z,5.41
2023-01-04T00:21:10.478Z,5.37
2023-01-04T00:23:39.646Z,5.31
2023-01-04T00:26:12.164Z,5.27
2023-01-04T00:28:40.648Z,5.25
2023-01-04T00:31:11.279Z,5.24
2023-01-04T00:33:39.817Z,5.20
2023-01-04T00:36:10.785Z,5.17
2023-01-04T00:38:39.832Z,5.13
2023-01-04T00:41:18.889Z,5.10
2023-01-04T00:43:59.315Z,5.07
2023-01-04T00:46:27.431Z,5.04
2023-01-04T00:49:00.082Z,5.02
2023-01-04T00:51:30.359Z,5.00
2023-01-04T00:53:59.780Z,4.97
2023-01-04T00:56:29.281Z,4.92
2023-01-04T00:58:58.503Z,4.87
2023-01-04T01:01:28.115Z,4.83
2023-01-04T01:03:57.906Z,4.78
2023-01-04T01:06:27.278Z,4.73
2023-01-04T01:08:55.613Z,4.68
2023-01-04T01:11:23.723Z,4.65
2023-01-04T01:13:52.502Z,4.60
2023-01-04T01:16:51.588Z,4.56
2023-01-04T01:19:11.337Z,4.51
2023-01-04T01:21:39.575Z,4.47
2023-01-04T01:24:09.970Z,4.41
2023-01-04T01:26:37.880Z,4.37
2023-01-04T01:29:05.781Z,4.35
2023-01-04T01:31:33.792Z,4.34
2023-01-04T01:34:02.950Z,4.35
2023-01-04T01:36:30.887Z,4.37
2023-01-04T01:38:58.856Z,4.36
2023-01-04T01:41:29.381Z,4.35
2023-01-04T01:44:00.042Z,4.34
2023-01-04T01:46:34.276Z,4.33
2023-01-04T01:49:08.989Z,4.32
2023-01-04T01:51:38.359Z,4.30
2023-01-04T01:54:11.646Z,4.27
2023-01-04T01:56:42.097Z,4.23
2023-01-04T01:59:11.618Z,4.18
2023-01-04T02:04:42.989Z,4.08
2023-01-04T02:07:11.855Z,4.05
2023-01-04T02:09:40.528Z,4.03
2023-01-04T02:12:12.379Z,4.01
2023-01-04T02:14:42.826Z,3.98
2023-01-04T02:17:17.462Z,3.94
2023-01-04T02:20:05.926Z,3.92
2023-01-04T02:23:07.640Z,3.89
2023-01-04T02:26:09.524Z,3.87
2023-01-04T02:28:55.315Z,3.82
2023-01-04T02:31:32.569Z,3.78
2023-01-04T02:34:08.256Z,3.74
2023-01-04T02:36:40.446Z,3.68
2023-01-04T02:39:18.795Z,3.62
2023-01-04T02:41:53.901Z,3.55
2023-01-04T02:44:49.461Z,3.50
2023-01-04T02:47:42.190Z,3.44
2023-01-04T02:50:31.147Z,3.41
2023-01-04T02:53:01.531Z,3.37
2023-01-04T02:55:39.990Z,3.33
2023-01-04T02:58:18.883Z,3.30
2023-01-04T03:01:17.252Z,3.26
2023-01-04T03:04:15.726Z,3.24
2023-01-04T03:06:50.961Z,3.20
2023-01-04T03:09:23.050Z,3.17
2023-01-04T03:12:14.138Z,3.13
2023-01-04T03:14:47.992Z,3.07
2023-01-04T03:17:21.005Z,3.02
2023-01-04T03:19:54.206Z,2.98
2023-01-04T03:22:48.233Z,2.93
2023-01-04T03:25:40.298Z,2.87
2023-01-04T03:28:29.205Z,2.84
2023-01-04T03:31:19.955Z,2.82
2023-01-04T03:34:06.946Z,2.81
2023-01-04T03:36:45.850Z,2.80
2023-01-04T03:39:39.295Z,2.79
2023-01-04T03:42:35.187Z,2.77
2023-01-04T03:45:32.428Z,2.74
2023-01-04T03:48:26.371Z,2.68
2023-01-04T03:51:02.370Z,2.62
2023-01-04T03:53:33.131Z,2.57
2023-01-04T03:56:02.222Z,2.55
2023-01-04T03:58:30.172Z,2.51
2023-01-04T04:01:02.721Z,2.49
2023-01-04T04:03:49.782Z,2.47
2023-01-04T04:06:35.907Z,2.46
2023-01-04T04:09:04.172Z,2.45
2023-01-04T04:11:32.375Z,2.45
2023-01-04T04:14:00.747Z,2.43
2023-01-04T04:16:28.954Z,2.42
2023-01-04T04:18:57.125Z,2.41
2023-01-04T04:21:25.062Z,2.42
2023-01-04T04:23:55.287Z,2.39
2023-01-04T04:26:23.943Z,2.36
2023-01-04T04:28:51.905Z,2.34
2023-01-04T04:31:19.977Z,2.32
2023-01-04T04:33:48.129Z,2.29
2023-01-04T04:36:16.161Z,2.28
2023-01-04T04:38:44.137Z,2.29
2023-01-04T04:41:32.209Z,2.29
2023-01-04T04:44:00.167Z,2.29
2023-01-04T04:46:28.138Z,2.28
2023-01-04T04:48:56.205Z,2.28
2023-01-04T04:51:24.203Z,2.28
2023-01-04T04:53:52.220Z,2.28
2023-01-04T04:56:20.210Z,2.27
2023-01-04T04:58:48.438Z,2.24
2023-01-04T05:01:16.894Z,2.21
2023-01-04T05:03:45.224Z,2.19
2023-01-04T05:06:13.271Z,2.18
2023-01-04T05:08:41.187Z,2.18
2023-01-04T05:11:11.210Z,2.20
2023-01-04T05:13:39.390Z,2.21
2023-01-04T05:16:09.322Z,2.23
2023-01-04T05:18:37.618Z,2.24
2023-01-04T05:21:06.011Z,2.23
2023-01-04T05:23:33.926Z,2.21
2023-01-04T05:26:03.172Z,2.21
2023-01-04T05:28:33.662Z,2.22
2023-01-04T05:31:06.265Z,2.21
2023-01-04T05:33:34.270Z,2.16
2023-01-04T05:36:04.369Z,2.11
2023-01-04T05:38:32.765Z,2.07
2023-01-04T05:41:01.847Z,2.05
2023-01-04T05:43:29.949Z,2.05
2023-01-04T05:45:57.923Z,2.06
2023-01-04T05:48:28.188Z,2.07
2023-01-04T05:50:56.148Z,2.09
2023-01-04T05:53:25.305Z,2.09
2023-01-04T05:55:54.193Z,2.11
2023-01-04T05:58:24.290Z,2.10
2023-01-04T06:00:52.476Z,2.10
2023-01-04T06:03:20.638Z,2.08
2023-01-04T06:05:50.560Z,2.07
2023-01-04T06:08:18.507Z,2.07
2023-01-04T06:10:53.507Z,2.07
2023-01-04T06:13:21.640Z,2.06
2023-01-04T06:15:49.604Z,2.06
2023-01-04T06:18:17.611Z,2.07
2023-01-04T06:20:45.581Z,2.06
2023-01-04T06:23:13.607Z,2.06
2023-01-04T06:25:42.870Z,2.07
2023-01-04T06:28:11.227Z,2.08
2023-01-04T06:30:39.279Z,2.08
2023-01-04T06:33:07.243Z,2.05
2023-01-04T06:35:35.565Z,2.01
2023-01-04T06:38:03.548Z,1.96
2023-01-04T06:40:31.485Z,1.94
2023-01-04T06:42:59.380Z,1.91
2023-01-04T06:45:27.376Z,1.90
2023-01-04T06:47:55.294Z,1.87
2023-01-04T06:50:23.723Z,1.86
2023-01-04T06:52:51.634Z,1.86
2023-01-04T06:55:19.608Z,1.88
2023-01-04T06:57:47.586Z,1.89
2023-01-04T07:00:17.777Z,1.91
2023-01-04T07:03:13.881Z,1.95
2023-01-04T07:05:33.811Z,2.00
2023-01-04T07:08:07.630Z,2.04
2023-01-04T07:10:36.566Z,2.09
2023-01-04T07:13:05.016Z,2.16
2023-01-04T07:15:38.112Z,2.24
2023-01-04T07:18:08.239Z,2.38
2023-01-04T07:20:36.843Z,2.61
2023-01-04T07:23:05.828Z,2.87
2023-01-04T07:25:42.690Z,3.03
2023-01-04T07:28:10.794Z,3.17
2023-01-04T07:30:39.226Z,3.38
2023-01-04T07:33:07.583Z,3.97
2023-01-04T07:35:35.738Z,4.42
2023-01-04T07:38:04.801Z,4.56
2023-01-04T07:40:32.981Z,4.70
2023-01-04T07:43:01.534Z,4.98
2023-01-04T07:45:29.789Z,5.50
2023-01-04T07:47:58.812Z,6.14
2023-01-04T07:50:26.803Z,6.77
2023-01-04T07:52:54.788Z,7.26
2023-01-04T07:55:22.699Z,7.84
2023-01-04T07:57:53.918Z,8.43
2023-01-04T08:00:22.297Z,8.98
2023-01-04T08:02:50.538Z,9.53
2023-01-04T08:05:18.871Z,9.95
2023-01-04T08:07:47.038Z,10.34
2023-01-04T08:10:15.251Z,10.66
2023-01-04T08:12:44.810Z,10.88
2023-01-04T08:15:14.445Z,11.07
2023-01-04T08:17:42.458Z,11.28
2023-01-04T08:20:11.447Z,11.60
2023-01-04T08:22:40.084Z,11.95
2023-01-04T08:25:09.528Z,12.38
2023-01-04T08:27:37.524Z,12.76
2023-01-04T08:30:08.296Z,13.13
2023-01-04T08:32:36.366Z,13.51
2023-01-04T08:35:05.584Z,13.85
2023-01-04T08:37:34.798Z,14.04
2023-01-04T08:40:02.783Z,14.39
2023-01-04T08:42:31.899Z,14.78
2023-01-04T08:45:00.572Z,15.17
2023-01-04T08:47:29.004Z,15.59
2023-01-04T08:49:57.877Z,15.98
2023-01-04T08:52:26.849Z,16.29
2023-01-04T08:54:54.805Z,16.61
2023-01-04T08:57:22.743Z,16.96
2023-01-04T08:59:50.708Z,17.37
2023-01-04T09:02:23.045Z,17.93
2023-01-04T09:04:52.017Z,18.32
2023-01-04T09:07:20.351Z,18.58
2023-01-04T09:09:48.399Z,18.74
2023-01-04T09:12:16.359Z,18.68
2023-01-04T09:14:44.548Z,18.49
2023-01-04T09:17:14.089Z,18.27
2023-01-04T09:19:42.222Z,18.08
2023-01-04T09:22:10.233Z,17.86
2023-01-04T09:24:38.237Z,17.41
2023-01-04T09:27:06.168Z,16.93
2023-01-04T09:29:34.149Z,16.36
2023-01-04T09:32:02.243Z,15.72
2023-01-04T09:34:30.404Z,15.06
2023-01-04T09:36:58.329Z,14.51
2023-01-04T09:40:05.873Z,13.94
2023-01-04T09:43:20.257Z,13.24
2023-01-04T09:45:44.066Z,12.79
2023-01-04T09:51:07.124Z,12.56
2023-01-04T09:53:40.621Z,12.60
2023-01-04T09:56:16.636Z,12.31
2023-01-04T09:58:45.202Z,11.92
2023-01-04T10:01:16.967Z,11.53
2023-01-04T10:03:55.163Z,11.14
2023-01-04T10:06:23.190Z,10.72
2023-01-04T10:08:51.386Z,10.41
2023-01-04T10:11:39.775Z,10.17
2023-01-04T10:14:23.825Z,9.90
2023-01-04T10:17:17.858Z,9.67
2023-01-04T10:23:05.847Z,9.26
2023-01-04T10:25:45.932Z,9.19
2023-01-04T10:28:42.064Z,9.17
2023-01-04T10:31:40.253Z,9.09
2023-01-04T10:34:18.952Z,9.06
2023-01-04T10:36:49.739Z,9.10
2023-01-04T10:39:22.595Z,9.06
2023-01-04T10:41:56.583Z,8.95
2023-01-04T10:44:39.551Z,8.86
2023-01-04T10:47:14.886Z,8.77
2023-01-04T10:49:44.286Z,8.61
2023-01-04T10:52:19.675Z,8.42
2023-01-04T10:54:54.792Z,8.27
2023-01-04T10:57:26.218Z,8.16
2023-01-04T10:59:58.931Z,8.09
2023-01-04T11:02:35.607Z,8.05
2023-01-04T11:05:12.547Z,7.98
2023-01-04T11:07:45.306Z,7.85
2023-01-04T11:10:18.175Z,7.73
2023-01-04T11:12:46.274Z,7.59
2023-01-04T11:15:14.525Z,7.43
2023-01-04T11:17:43.323Z,7.31
2023-01-04T11:20:12.017Z,7.15
2023-01-04T11:22:45.806Z,7.02
2023-01-04T11:25:35.602Z,6.96
2023-01-04T11:28:13.802Z,6.89
2023-01-04T11:30:51.357Z,6.82
2023-01-04T11:33:20.961Z,6.76
2023-01-04T11:35:50.557Z,6.68
2023-01-04T11:38:20.314Z,6.60
2023-01-04T11:41:05.018Z,6.52
2023-01-04T11:43:34.434Z,6.42
2023-01-04T11:46:05.218Z,6.31
2023-01-04T11:48:36.265Z,6.18
2023-01-04T11:51:06.035Z,6.08
2023-01-04T11:53:36.780Z,6.02
2023-01-04T11:56:20.160Z,5.97
2023-01-04T11:59:12.922Z,5.89
2023-01-04T12:01:44.098Z,5.83
2023-01-04T12:04:20.168Z,5.79
2023-01-04T12:06:53.530Z,5.74
2023-01-04T12:09:22.363Z,5.70
2023-01-04T12:11:52.601Z,5.65
2023-01-04T12:14:26.476Z,5.60
2023-01-04T12:17:01.368Z,5.56
2023-01-04T12:19:30.274Z,5.57
2023-01-04T12:22:01.520Z,5.58
2023-01-04T12:24:34.380Z,5.59
2023-01-04T12:27:03.864Z,5.59
2023-01-04T12:29:56.570Z,5.59
2023-01-04T12:32:44.934Z,5.61
2023-01-04T12:35:59.499Z,5.61
2023-01-04T12:39:03.925Z,5.60
2023-01-04T12:42:20.522Z,5.60
2023-01-04T12:45:20.499Z,5.60
2023-01-04T12:48:08.935Z,5.56
2023-01-04T12:51:37.377Z,5.50
2023-01-04T12:54:23.616Z,5.41
2023-01-04T12:57:24.520Z,5.36
2023-01-04T12:59:57.793Z,5.35
2023-01-04T13:02:32.313Z,5.36
2023-01-04T13:07:53.131Z,5.42
2023-01-04T13:10:32.018Z,5.44
2023-01-04T13:13:13.241Z,5.45
2023-01-04T13:15:52.655Z,5.47
2023-01-04T13:18:36.132Z,5.45
2023-01-04T13:21:13.443Z,5.44
2023-01-04T13:23:53.895Z,5.44
2023-01-04T13:26:34.947Z,5.42
2023-01-04T13:29:23.481Z,5.42
2023-01-04T13:32:04.290Z,5.43
2023-01-04T13:34:54.711Z,5.44
2023-01-04T13:38:05.781Z,5.47
2023-01-04T13:40:49.096Z,5.48
2023-01-04T13:43:40.017Z,5.49
2023-01-04T13:46:15.199Z,5.50
2023-01-04T13:48:44.123Z,5.52
2023-01-04T13:51:17.818Z,5.52
2023-01-04T13:53:56.688Z,5.52
2023-01-04T13:56:27.265Z,5.52
2023-01-04T13:58:55.876Z,5.54
2023-01-04T14:01:27.594Z,5.56
2023-01-04T14:03:57.886Z,5.57
2023-01-04T14:06:31.488Z,5.59
2023-01-04T14:09:04.485Z,5.64
2023-01-04T14:12:06.817Z,5.66
2023-01-04T14:14:48.638Z,5.69
2023-01-04T14:17:26.463Z,5.72
2023-01-04T14:20:04.571Z,5.75
2023-01-04T14:22:50.304Z,5.77
2023-01-04T14:25:48.004Z,5.79
2023-01-04T14:28:31.784Z,5.83
2023-01-04T14:31:19.048Z,5.83
2023-01-04T14:33:49.646Z,5.84
2023-01-04T14:36:22.236Z,5.86
2023-01-04T14:39:00.394Z,5.86
2023-01-04T14:41:33.515Z,5.86
2023-01-04T14:44:10.243Z,5.88
2023-01-04T14:46:38.700Z,5.91
2023-01-04T14:49:08.650Z,5.92
2023-01-04T14:51:44.859Z,5.97
2023-01-04T14:54:20.435Z,6.01
2023-01-04T14:56:58.268Z,6.05
2023-01-04T14:59:28.000Z,6.03
2023-01-04T15:01:57.610Z,6.03
2023-01-04T15:04:27.287Z,6.01
2023-01-04T15:06:59.142Z,6.01
2023-01-04T15:09:27.731Z,6.00
2023-01-04T15:11:55.800Z,5.98
2023-01-04T15:14:24.366Z,5.98
2023-01-04T15:16:52.378Z,5.96
2023-01-04T15:19:21.279Z,5.96
2023-01-04T15:21:49.207Z,5.95
2023-01-04T15:24:17.354Z,5.95
2023-01-04T15:26:45.542Z,5.95
2023-01-04T15:29:13.645Z,5.94
2023-01-04T15:31:43.086Z,5.92
2023-01-04T15:34:11.471Z,5.90
2023-01-04T15:36:39.929Z,5.90
2023-01-04T15:39:13.319Z,5.89
2023-01-04T15:41:59.634Z,5.89
2023-01-04T15:44:27.769Z,5.91
2023-01-04T15:46:58.477Z,5.94
2023-01-04T15:49:31.164Z,5.97
2023-01-04T15:51:59.807Z,5.98
2023-01-04T15:54:28.463Z,5.99
2023-01-04T15:56:57.062Z,6.00
2023-01-04T15:59:25.536Z,6.00
2023-01-04T16:01:53.846Z,5.99
2023-01-04T16:04:22.151Z,5.96
2023-01-04T16:06:52.035Z,5.97
2023-01-04T16:09:20.154Z,5.97
2023-01-04T16:12:06.410Z,6.00
2023-01-04T16:14:36.106Z,6.01
2023-01-04T16:17:04.101Z,6.01
2023-01-04T16:19:33.557Z,6.02
2023-01-04T16:22:01.557Z,6.03
2023-01-04T16:27:21.596Z,6.04
2023-01-04T16:29:50.394Z,6.02
2023-01-04T16:32:19.244Z,6.02
2023-01-04T16:34:50.064Z,6.01
2023-01-04T16:37:18.098Z,6.01
2023-01-04T16:42:35.805Z,6.02
2023-01-04T16:45:04.316Z,6.02
2023-01-04T16:47:39.966Z,6.04
2023-01-04T16:50:09.996Z,6.04
2023-01-04T16:52:38.101Z,6.04
2023-01-04T16:55:08.595Z,6.02
2023-01-04T16:57:36.545Z,6.02
2023-01-04T17:00:07.068Z,6.00
2023-01-04T17:02:35.805Z,6.00
2023-01-04T17:05:04.619Z,6.02
2023-01-04T17:07:33.415Z,6.04
2023-01-04T17:10:01.721Z,6.04
2023-01-04T17:12:47.518Z,6.03
2023-01-04T17:18:06.198Z,6.02
2023-01-04T17:20:34.355Z,6.02
2023-01-04T17:23:02.407Z,6.01
2023-01-04T17:25:30.544Z,6.00
2023-01-04T17:27:58.472Z,6.00
2023-01-04T17:30:26.402Z,6.00
2023-01-04T17:32:54.407Z,5.98
2023-01-04T17:35:22.330Z,5.98
2023-01-04T17:37:50.334Z,5.98
2023-01-04T17:40:22.866Z,6.00
2023-01-04T17:42:51.678Z,6.02
2023-01-04T17:45:20.150Z,6.04
2023-01-04T17:47:48.119Z,6.06
2023-01-04T17:50:19.349Z,6.06
2023-01-04T17:52:48.354Z,6.07
2023-01-04T17:55:17.327Z,6.06
2023-01-04T17:57:45.721Z,6.07
2023-01-04T18:00:15.719Z,6.07
2023-01-04T18:02:44.533Z,6.08
2023-01-04T18:05:14.028Z,6.09
2023-01-04T18:07:42.036Z,6.09
2023-01-04T18:10:21.366Z,6.10
2023-01-04T18:13:03.748Z,6.10
2023-01-04T18:15:32.488Z,6.12
2023-01-04T18:18:02.772Z,6.12
2023-01-04T18:20:30.954Z,6.12
2023-01-04T18:22:59.107Z,6.10
2023-01-04T18:25:27.095Z,6.09
2023-01-04T18:27:55.219Z,6.09
2023-01-04T18:30:23.204Z,6.08
2023-01-04T18:32:51.634Z,6.07
2023-01-04T18:35:20.204Z,6.06
2023-01-04T18:37:48.150Z,6.05
2023-01-04T18:40:16.368Z,6.06
2023-01-04T18:42:47.768Z,6.06
2023-01-04T18:45:16.574Z,6.07
2023-01-04T18:47:46.947Z,6.08
2023-01-04T18:50:15.926Z,6.09
2023-01-04T18:52:44.370Z,6.13
2023-01-04T18:55:12.547Z,6.15
2023-01-04T18:57:40.905Z,6.17
2023-01-04T19:00:13.393Z,6.19
2023-01-04T19:02:42.090Z,6.20
2023-01-04T19:05:13.027Z,6.22
2023-01-04T19:07:41.835Z,6.24
2023-01-04T19:10:10.187Z,6.29
2023-01-04T19:12:38.474Z,6.32
2023-01-04T19:15:16.977Z,6.32
2023-01-04T19:17:50.100Z,6.31
2023-01-04T19:20:18.568Z,6.32
2023-01-04T19:22:50.663Z,6.34
2023-01-04T19:25:23.131Z,6.37
2023-01-04T19:27:55.009Z,6.39
2023-01-04T19:30:27.509Z,6.41
2023-01-04T19:32:55.717Z,6.42
2023-01-04T19:35:24.916Z,6.43
2023-01-04T19:37:53.046Z,6.44
2023-01-04T19:40:21.328Z,6.44
2023-01-04T19:42:49.333Z,6.46
2023-01-04T19:45:17.553Z,6.48
2023-01-04T19:47:48.799Z,6.50
2023-01-04T19:50:20.713Z,6.52
2023-01-04T19:52:49.622Z,6.52
2023-01-04T19:55:18.111Z,6.53
2023-01-04T19:57:49.852Z,6.51
2023-01-04T20:00:21.806Z,6.51
2023-01-04T20:02:50.751Z,6.53
2023-01-04T20:05:19.264Z,6.56
2023-01-04T20:07:48.561Z,6.57
2023-01-04T20:10:16.734Z,6.58
2023-01-04T20:13:02.322Z,6.59
2023-01-04T20:15:29.416Z,6.61
2023-01-04T20:18:01.260Z,6.64
2023-01-04T20:20:29.313Z,6.66
2023-01-04T20:23:09.163Z,6.69
2023-01-04T20:25:40.754Z,6.70
2023-01-04T20:28:09.030Z,6.69
2023-01-04T20:30:37.686Z,6.71
2023-01-04T20:33:06.595Z,6.74
2023-01-04T20:35:38.532Z,6.76
2023-01-04T20:38:06.647Z,6.80
2023-01-04T20:40:38.574Z,6.83
2023-01-04T20:43:25.215Z,6.84
2023-01-04T20:45:55.055Z,6.83
2023-01-04T20:48:26.811Z,6.82
2023-01-04T20:50:55.388Z,6.83
2023-01-04T20:53:29.231Z,6.82
2023-01-04T20:56:09.324Z,6.84
2023-01-04T20:58:38.088Z,6.86
2023-01-04T21:01:11.025Z,6.87
2023-01-04T21:03:44.123Z,6.89
2023-01-04T21:06:14.909Z,6.90
2023-01-04T21:08:44.790Z,6.92
2023-01-04T21:11:14.012Z,6.94
2023-01-04T21:13:42.427Z,6.96
2023-01-04T21:16:11.109Z,6.98
2023-01-04T21:18:39.261Z,6.98
2023-01-04T21:21:08.912Z,6.99
2023-01-04T21:23:37.899Z,7.04
2023-01-04T21:26:07.774Z,7.07
2023-01-04T21:28:36.363Z,7.10
2023-01-04T21:31:10.244Z,7.12
2023-01-04T21:33:38.520Z,7.15
2023-01-04T21:36:12.025Z,7.18
2023-01-04T21:38:40.105Z,7.21
2023-01-04T21:41:09.699Z,7.23
2023-01-04T21:43:38.133Z,7.24
2023-01-04T21:46:08.120Z,7.26
2023-01-04T21:48:36.366Z,7.28
2023-01-04T21:51:06.608Z,7.31
2023-01-04T21:53:36.175Z,7.33
2023-01-04T21:56:06.724Z,7.36
2023-01-04T21:58:35.329Z,7.39
2023-01-04T22:01:09.147Z,7.40
2023-01-04T22:03:37.176Z,7.42
2023-01-04T22:06:05.888Z,7.44
2023-01-04T22:08:34.761Z,7.46
2023-01-04T22:11:04.135Z,7.49
2023-01-04T22:13:32.194Z,7.52
2023-01-04T22:16:04.164Z,7.55
2023-01-04T22:18:32.313Z,7.57
2023-01-04T22:21:05.322Z,7.58
2023-01-04T22:23:33.928Z,7.61
2023-01-04T22:26:02.232Z,7.62
2023-01-04T22:28:36.347Z,7.62
2023-01-04T22:31:07.050Z,7.62
2023-01-04T22:33:36.220Z,7.62
2023-01-04T22:36:06.230Z,7.61
2023-01-04T22:38:35.097Z,7.60
2023-01-04T22:41:07.067Z,7.59
2023-01-04T22:43:35.783Z,7.61
2023-01-04T22:46:07.637Z,7.63
2023-01-04T22:48:35.895Z,7.66
2023-01-04T22:51:07.812Z,7.68
2023-01-04T22:53:36.928Z,7.71
2023-01-04T22:56:24.099Z,7.73
2023-01-04T22:58:55.368Z,7.75
2023-01-04T23:01:26.061Z,7.76
2023-01-04T23:03:55.439Z,7.79
2023-01-04T23:06:25.130Z,7.79
2023-01-04T23:08:58.718Z,7.81
2023-01-04T23:11:29.558Z,7.81
2023-01-04T23:14:00.530Z,7.83
2023-01-04T23:16:32.996Z,7.84
2023-01-04T23:19:02.234Z,7.87
2023-01-04T23:21:37.708Z,7.88
2023-01-04T23:24:07.265Z,7.89
2023-01-04T23:26:35.307Z,7.90
2023-01-04T23:29:03.998Z,7.91
2023-01-04T23:31:33.652Z,7.90
2023-01-04T23:34:04.675Z,7.92
2023-01-04T23:36:34.297Z,7.93
2023-01-04T23:39:04.950Z,7.95
2023-01-04T23:41:50.669Z,7.98
2023-01-04T23:46:54.312Z,8.01
2023-01-04T23:49:23.569Z,8.02
2023-01-04T23:51:52.526Z,8.03
2023-01-04T23:54:21.943Z,8.06
2023-01-04T23:56:50.146Z,8.08
2023-01-04T23:59:18.697Z,8.10
